Time;durP1;ratioP1;P1;durP2;ratioP2;P2;SDS_P1;SDS_P2;PMS_P1;PMS_P2;Temp;Humidity;BMP_temperature;BMP_pressure;BME280_temperature;BME280_humidity;BME280_pressure;Samples;Min_cycle;Max_cycle;Signal;HPM_P1;HPM_P2
2022/01/30 00:00:03;;;;;;;24.00;16.70;;;6.00;99.90;;;;;;5095785;28;20453;-69
2022/01/30 00:02:33;;;;;;;26.97;17.90;;;5.90;99.90;;;;;;5099040;28;20889;-69
2022/01/30 00:05:01;;;;;;;27.10;16.73;;;5.90;99.90;;;;;;5101539;28;20491;-69
2022/01/30 00:07:28;;;;;;;18.60;16.70;;;5.80;99.90;;;;;;5096705;28;20482;-69
2022/01/30 00:09:55;;;;;;;18.03;16.23;;;5.80;99.90;;;;;;5094993;28;20784;-69
2022/01/30 00:12:30;;;;;;;28.00;17.23;;;5.80;99.90;;;;;;5104572;28;20522;-69
2022/01/30 00:14:57;;;;;;;23.87;16.87;;;5.70;99.90;;;;;;5097403;28;21050;-69
2022/01/30 00:17:33;;;;;;;18.60;16.90;;;5.70;99.90;;;;;;5099296;28;20480;-69
2022/01/30 00:20:05;;;;;;;25.93;17.20;;;5.70;99.90;;;;;;5098438;28;20464;-69
2022/01/30 00:22:44;;;;;;;27.83;17.07;;;5.60;99.90;;;;;;5092611;28;20457;-69
2022/01/30 00:25:16;;;;;;;21.70;16.37;;;5.50;99.90;;;;;;5098334;28;20459;-69
2022/01/30 00:27:56;;;;;;;20.90;16.80;;;5.40;99.90;;;;;;5101677;28;20465;-69
2022/01/30 00:30:23;;;;;;;20.27;17.10;;;5.30;99.90;;;;;;5094617;28;20468;-69
2022/01/30 00:32:52;;;;;;;20.37;15.70;;;5.20;99.90;;;;;;5101453;28;20458;-69
2022/01/30 00:35:20;;;;;;;28.17;16.60;;;5.20;99.90;;;;;;5098855;28;21032;-69
2022/01/30 00:37:49;;;;;;;22.13;18.83;;;5.10;99.90;;;;;;5096494;28;21043;-69
2022/01/30 00:40:16;;;;;;;22.77;16.20;;;5.00;99.90;;;;;;5099309;28;20459;-69
2022/01/30 00:42:44;;;;;;;19.87;17.53;;;5.10;99.90;;;;;;5100820;28;20462;-71
2022/01/30 00:45:12;;;;;;;19.07;16.43;;;5.10;99.90;;;;;;5102683;28;21043;-69
2022/01/30 00:47:38;;;;;;;24.90;16.30;;;5.20;99.90;;;;;;5106598;28;20457;-69
2022/01/30 00:50:06;;;;;;;22.70;16.47;;;5.20;99.90;;;;;;5095705;28;20453;-69
2022/01/30 00:52:36;;;;;;;25.37;16.70;;;5.20;99.90;;;;;;5097876;28;20469;-69
2022/01/30 00:55:04;;;;;;;24.83;17.57;;;5.20;99.90;;;;;;5097755;28;20673;-71
2022/01/30 00:57:32;;;;;;;17.23;15.43;;;5.20;99.90;;;;;;5099286;28;20457;-71
2022/01/30 01:00:00;;;;;;;23.47;16.83;;;5.20;99.90;;;;;;5089758;28;20807;-71
2022/01/30 01:02:27;;;;;;;20.33;15.80;;;5.20;99.90;;;;;;5102344;28;20461;-72
2022/01/30 01:04:54;;;;;;;21.70;16.37;;;5.10;99.90;;;;;;5098965;28;20498;-71
2022/01/30 01:07:23;;;;;;;40.43;17.27;;;5.00;99.90;;;;;;5101016;28;20481;-71
2022/01/30 01:10:00;;;;;;;24.70;16.50;;;5.00;99.90;;;;;;5102945;28;20469;-71
2022/01/30 01:23:38;;;;;;;27.77;18.20;;;4.70;99.90;;;;;;5057874;28;20493;-70
2022/01/30 01:26:06;;;;;;;21.00;15.80;;;4.70;99.90;;;;;;5097638;28;20464;-70
2022/01/30 01:28:33;;;;;;;20.70;15.30;;;4.70;99.90;;;;;;5103542;28;20540;-69
2022/01/30 01:31:01;;;;;;;24.50;15.77;;;4.60;99.90;;;;;;5098917;28;20458;-69
2022/01/30 01:33:36;;;;;;;19.20;16.20;;;4.60;99.90;;;;;;5097561;28;20556;-69
2022/01/30 01:36:03;;;;;;;24.40;16.67;;;4.50;99.90;;;;;;5101417;28;20449;-69
2022/01/30 01:38:30;;;;;;;28.37;16.40;;;4.50;99.90;;;;;;5096206;28;20462;-70
2022/01/30 01:40:57;;;;;;;30.07;17.67;;;4.50;99.90;;;;;;5109227;28;21077;-69
2022/01/30 01:43:27;;;;;;;24.37;16.60;;;4.60;99.90;;;;;;5098816;28;20482;-70
2022/01/30 01:45:57;;;;;;;20.97;15.73;;;4.60;99.90;;;;;;5103693;28;20660;-69
2022/01/30 01:48:24;;;;;;;29.00;16.30;;;4.50;99.90;;;;;;5102630;28;20539;-69
2022/01/30 01:50:54;;;;;;;25.77;17.03;;;4.50;99.90;;;;;;5103109;28;20468;-71
2022/01/30 01:53:23;;;;;;;27.10;17.33;;;4.50;99.90;;;;;;5103963;28;20462;-71
2022/01/30 01:55:51;;;;;;;26.17;16.40;;;4.50;99.90;;;;;;5101359;28;21017;-71
2022/01/30 01:58:19;;;;;;;25.03;17.93;;;4.50;99.90;;;;;;5097947;28;20466;-70
2022/01/30 02:00:48;;;;;;;26.20;16.47;;;4.50;99.90;;;;;;5093812;28;20458;-70
2022/01/30 02:03:17;;;;;;;31.77;17.07;;;4.50;99.90;;;;;;5095839;28;20470;-70
2022/01/30 02:05:49;;;;;;;27.90;17.20;;;4.50;99.90;;;;;;5098205;28;20458;-69
2022/01/30 02:08:35;;;;;;;25.87;16.60;;;4.60;99.90;;;;;;5102261;28;21014;-71
2022/01/30 02:11:06;;;;;;;27.00;15.63;;;4.60;99.90;;;;;;5093695;28;20831;-70
2022/01/30 02:24:58;;;;;;;27.07;17.17;;;4.60;99.90;;;;;;5102844;28;20488;-71
2022/01/30 02:27:31;;;;;;;20.17;16.37;;;4.50;99.90;;;;;;5100600;28;20944;-70
2022/01/30 02:29:58;;;;;;;24.30;17.53;;;4.50;99.90;;;;;;5103128;28;21102;-70
2022/01/30 02:32:26;;;;;;;36.40;15.97;;;4.50;99.90;;;;;;5103140;28;20941;-71
2022/01/30 02:34:53;;;;;;;29.40;15.93;;;4.50;99.90;;;;;;5100618;28;20964;-70
2022/01/30 02:37:20;;;;;;;28.43;16.30;;;4.40;99.90;;;;;;5098851;28;20465;-71
2022/01/30 02:39:48;;;;;;;21.97;16.53;;;4.40;99.90;;;;;;5098499;28;20469;-69
2022/01/30 02:42:19;;;;;;;36.70;17.57;;;4.40;99.90;;;;;;5100745;28;20460;-70
2022/01/30 02:44:51;;;;;;;30.00;18.07;;;4.30;99.90;;;;;;5098323;28;20538;-69
2022/01/30 02:47:27;;;;;;;30.93;17.90;;;4.30;99.90;;;;;;5103142;28;20461;-69
2022/01/30 02:50:11;;;;;;;30.93;16.63;;;4.40;99.90;;;;;;5099462;28;20859;-69
2022/01/30 02:52:40;;;;;;;31.10;15.90;;;4.50;99.90;;;;;;5097016;28;20461;-70
2022/01/30 02:55:11;;;;;;;28.00;17.00;;;4.40;99.90;;;;;;5092936;28;20456;-71
2022/01/30 02:57:39;;;;;;;29.13;16.63;;;4.50;99.90;;;;;;5102786;28;20540;-69
2022/01/30 03:00:08;;;;;;;17.73;15.60;;;4.50;99.90;;;;;;5096121;28;20469;-69
2022/01/30 03:02:35;;;;;;;31.57;16.63;;;4.50;99.90;;;;;;5096006;28;20465;-70
2022/01/30 03:05:02;;;;;;;27.83;16.30;;;4.50;99.90;;;;;;5103045;28;20489;-70
2022/01/30 03:07:29;;;;;;;22.40;16.30;;;4.40;99.90;;;;;;5100657;28;20983;-70
2022/01/30 03:09:56;;;;;;;17.73;16.00;;;4.40;99.90;;;;;;5100574;28;20457;-70
2022/01/30 03:12:25;;;;;;;21.83;16.40;;;4.40;99.90;;;;;;5100357;28;20996;-69
2022/01/30 03:14:52;;;;;;;45.70;17.73;;;4.40;99.90;;;;;;5100057;28;20851;-71
2022/01/30 03:17:18;;;;;;;22.87;17.00;;;4.40;99.90;;;;;;5097924;28;20453;-69
2022/01/30 03:19:45;;;;;;;42.83;17.07;;;4.30;99.90;;;;;;5089304;28;20462;-69
2022/01/30 03:22:13;;;;;;;20.73;16.07;;;4.30;99.90;;;;;;5096476;28;21003;-71
2022/01/30 03:24:41;;;;;;;38.40;16.43;;;4.30;99.90;;;;;;5096390;28;20490;-69
2022/01/30 03:27:11;;;;;;;26.20;16.60;;;4.20;99.90;;;;;;5101798;28;20993;-68
2022/01/30 03:29:48;;;;;;;32.50;16.80;;;4.10;99.90;;;;;;5101177;28;20514;-71
2022/01/30 03:32:15;;;;;;;30.23;17.43;;;4.00;99.90;;;;;;5095752;28;20786;-69
2022/01/30 03:34:43;;;;;;;21.00;16.60;;;4.00;99.90;;;;;;5104198;28;20990;-69
2022/01/30 03:37:10;;;;;;;22.73;16.83;;;4.00;99.90;;;;;;5101072;28;20461;-71
2022/01/30 03:39:37;;;;;;;27.90;18.03;;;4.00;99.90;;;;;;5096563;28;20462;-71
2022/01/30 03:42:04;;;;;;;22.17;16.37;;;4.00;99.90;;;;;;5099034;28;20983;-70
2022/01/30 03:44:31;;;;;;;28.23;16.43;;;4.10;99.90;;;;;;5103961;28;20491;-70
2022/01/30 03:47:00;;;;;;;31.47;16.77;;;4.10;99.90;;;;;;5107751;28;20466;-70
2022/01/30 03:49:27;;;;;;;22.43;16.17;;;4.10;99.90;;;;;;5103325;28;20544;-70
2022/01/30 03:51:54;;;;;;;43.97;16.83;;;4.10;99.90;;;;;;5098174;28;20458;-69
2022/01/30 03:54:21;;;;;;;23.97;16.40;;;4.10;99.90;;;;;;5102137;28;20464;-70
2022/01/30 03:56:49;;;;;;;33.10;18.33;;;4.20;99.90;;;;;;5096725;28;20464;-70
2022/01/30 03:59:15;;;;;;;41.30;16.77;;;4.10;99.90;;;;;;5102296;28;20457;-69
2022/01/30 04:01:42;;;;;;;25.20;16.00;;;4.20;99.90;;;;;;5101848;28;20449;-71
2022/01/30 04:04:10;;;;;;;33.93;17.63;;;4.20;99.90;;;;;;5102821;28;20496;-69
2022/01/30 04:06:39;;;;;;;30.23;16.20;;;4.20;99.90;;;;;;5094247;28;20464;-70
2022/01/30 04:09:06;;;;;;;26.63;16.47;;;4.10;99.90;;;;;;5099929;28;20457;-69
2022/01/30 04:11:33;;;;;;;27.27;17.30;;;4.10;99.90;;;;;;5094245;28;20466;-69
2022/01/30 04:14:00;;;;;;;24.37;16.93;;;4.10;99.90;;;;;;5102843;28;20488;-70
2022/01/30 04:16:28;;;;;;;19.83;16.47;;;4.10;99.90;;;;;;5098757;28;20467;-70
2022/01/30 04:18:56;;;;;;;39.00;17.30;;;4.00;99.90;;;;;;5100389;28;20461;-70
2022/01/30 04:21:25;;;;;;;22.73;18.43;;;4.00;99.90;;;;;;5100451;28;20529;-69
2022/01/30 04:23:52;;;;;;;19.60;17.27;;;4.00;99.90;;;;;;5092130;27;20477;-71
2022/01/30 04:26:19;;;;;;;30.90;17.70;;;4.00;99.90;;;;;;5092476;28;20489;-70
2022/01/30 04:28:46;;;;;;;31.80;16.53;;;4.10;99.90;;;;;;5101521;28;20501;-69
2022/01/30 04:31:13;;;;;;;29.40;17.40;;;4.10;99.90;;;;;;5091274;28;20486;-70
2022/01/30 04:33:42;;;;;;;24.63;16.60;;;4.00;99.90;;;;;;5095927;28;20991;-68
2022/01/30 04:36:13;;;;;;;23.73;16.77;;;4.10;99.90;;;;;;5096987;28;20862;-71
2022/01/30 04:38:55;;;;;;;30.10;17.53;;;4.20;99.90;;;;;;5099832;28;20579;-69
2022/01/30 04:53:09;;;;;;;21.40;14.73;;;4.60;99.90;;;;;;5097454;28;20481;-70
2022/01/30 04:58:34;;;;;;;24.97;15.73;;;4.70;99.90;;;;;;5045030;28;20866;-71
2022/01/30 05:01:11;;;;;;;28.00;16.17;;;4.80;99.90;;;;;;5091786;28;20566;-70
2022/01/30 05:03:54;;;;;;;27.73;15.17;;;4.80;99.90;;;;;;5091879;28;20577;-70
2022/01/30 05:06:31;;;;;;;24.70;14.93;;;4.80;99.90;;;;;;5076389;28;20470;-72
2022/01/30 05:08:58;;;;;;;17.57;15.63;;;4.80;99.90;;;;;;5055978;28;20458;-70
2022/01/30 05:11:25;;;;;;;32.77;15.13;;;4.70;99.90;;;;;;5057532;28;20842;-71
2022/01/30 05:13:53;;;;;;;26.10;15.10;;;4.50;99.90;;;;;;5058057;28;21157;-71
2022/01/30 05:16:23;;;;;;;18.87;15.60;;;4.40;99.90;;;;;;5057857;28;20460;-71
2022/01/30 05:18:50;;;;;;;30.03;16.40;;;4.20;99.90;;;;;;5058256;28;20462;-71
2022/01/30 05:21:19;;;;;;;23.57;15.07;;;4.20;99.90;;;;;;5058072;28;20871;-71
2022/01/30 05:23:46;;;;;;;32.53;15.10;;;4.20;99.90;;;;;;5058705;28;20687;-71
2022/01/30 05:26:14;;;;;;;28.03;15.50;;;4.10;99.90;;;;;;5058701;28;21101;-69
2022/01/30 05:28:42;;;;;;;29.43;16.10;;;4.10;99.90;;;;;;5057945;28;20772;-69
2022/01/30 05:31:09;;;;;;;25.83;17.13;;;4.10;99.90;;;;;;5057126;28;20471;-71
2022/01/30 05:33:38;;;;;;;18.97;15.90;;;4.00;99.90;;;;;;5058073;28;20454;-72
2022/01/30 05:36:08;;;;;;;22.67;16.00;;;4.00;99.90;;;;;;5056781;28;21233;-71
2022/01/30 05:38:35;;;;;;;29.00;15.83;;;3.90;99.90;;;;;;5058116;28;20969;-69
2022/01/30 05:41:02;;;;;;;29.73;16.43;;;3.90;99.90;;;;;;5058303;28;20493;-71
2022/01/30 05:43:31;;;;;;;26.17;16.90;;;3.90;99.90;;;;;;5058799;28;20493;-69
2022/01/30 05:46:09;;;;;;;20.97;15.60;;;3.90;99.90;;;;;;5058924;28;21160;-70
2022/01/30 05:48:38;;;;;;;30.00;16.10;;;3.80;99.90;;;;;;5057236;28;20476;-71
2022/01/30 05:51:05;;;;;;;27.77;16.50;;;3.80;99.90;;;;;;5058336;28;20936;-70
2022/01/30 05:53:33;;;;;;;23.97;16.23;;;3.70;99.90;;;;;;5056927;28;20462;-69
2022/01/30 05:56:00;;;;;;;24.60;17.00;;;3.70;99.90;;;;;;5044362;28;20586;-70
2022/01/30 05:58:27;;;;;;;33.77;15.93;;;3.80;99.90;;;;;;5043385;28;20467;-69
2022/01/30 06:00:54;;;;;;;28.17;18.30;;;3.70;99.90;;;;;;5043546;28;20458;-69
2022/01/30 06:03:21;;;;;;;23.83;16.93;;;3.60;99.90;;;;;;5043019;28;20490;-70
2022/01/30 06:05:49;;;;;;;18.13;15.77;;;3.70;99.90;;;;;;5044137;28;20830;-68
2022/01/30 06:08:38;;;;;;;31.83;16.27;;;3.60;99.90;;;;;;5043755;28;20488;-69
2022/01/30 06:11:03;;;;;;;16.57;15.03;;;3.60;99.90;;;;;;5044860;28;20466;-71
2022/01/30 06:13:31;;;;;;;23.57;16.50;;;3.50;99.90;;;;;;5044513;28;20487;-71
2022/01/30 06:15:57;;;;;;;16.73;15.03;;;3.60;99.90;;;;;;5044907;28;21150;-70
2022/01/30 06:18:24;;;;;;;23.17;15.17;;;3.60;99.90;;;;;;5043063;28;20463;-71
2022/01/30 06:20:52;;;;;;;29.37;16.20;;;3.60;99.90;;;;;;5044904;28;20447;-70
2022/01/30 06:23:22;;;;;;;33.00;18.07;;;3.50;99.90;;;;;;5044300;28;20502;-70
2022/01/30 06:25:49;;;;;;;25.43;16.60;;;3.50;99.90;;;;;;5043734;28;20980;-70
2022/01/30 06:28:16;;;;;;;23.03;17.40;;;3.50;99.90;;;;;;5044125;28;20459;-70
2022/01/30 06:30:42;;;;;;;17.30;15.70;;;3.50;99.90;;;;;;5044593;28;20973;-70
2022/01/30 06:33:09;;;;;;;25.23;16.87;;;3.40;99.90;;;;;;5043385;28;21012;-69
2022/01/30 06:35:36;;;;;;;23.33;16.10;;;3.40;99.90;;;;;;5044544;28;21213;-69
2022/01/30 06:38:04;;;;;;;22.00;16.60;;;3.40;99.90;;;;;;5044217;28;20458;-69
2022/01/30 06:40:32;;;;;;;28.50;16.03;;;3.40;99.90;;;;;;5044837;28;21205;-69
2022/01/30 06:43:00;;;;;;;29.50;16.00;;;3.50;99.90;;;;;;5042651;28;20551;-70
2022/01/30 06:45:27;;;;;;;23.30;15.87;;;3.50;99.90;;;;;;5044626;28;20478;-69
2022/01/30 06:47:54;;;;;;;34.83;18.00;;;3.40;99.90;;;;;;5042210;28;20468;-69
2022/01/30 06:50:21;;;;;;;28.77;18.23;;;3.40;99.90;;;;;;5043184;28;20477;-70
2022/01/30 06:52:48;;;;;;;24.13;16.00;;;3.40;99.90;;;;;;5047519;28;20473;-70
2022/01/30 06:55:17;;;;;;;19.03;15.30;;;3.40;99.90;;;;;;5047079;28;20482;-70
2022/01/30 06:57:44;;;;;;;25.13;17.07;;;3.40;99.90;;;;;;5042013;28;20565;-70
2022/01/30 07:00:13;;;;;;;22.07;15.93;;;3.50;99.90;;;;;;5039122;28;20834;-69
2022/01/30 07:02:39;;;;;;;23.07;16.93;;;3.40;99.90;;;;;;5041354;28;21075;-70
2022/01/30 07:05:07;;;;;;;27.27;16.30;;;3.30;99.90;;;;;;5039755;28;20470;-71
2022/01/30 07:07:34;;;;;;;22.63;17.17;;;3.30;99.90;;;;;;5038606;28;21168;-70
2022/01/30 07:10:01;;;;;;;24.63;16.57;;;3.20;99.90;;;;;;5040370;28;20463;-71
2022/01/30 07:12:29;;;;;;;27.60;16.60;;;3.20;99.90;;;;;;5041750;28;20540;-70
2022/01/30 07:14:56;;;;;;;17.90;15.00;;;3.10;99.90;;;;;;5041779;28;20996;-69
2022/01/30 07:17:23;;;;;;;25.97;16.30;;;3.10;99.90;;;;;;5039794;28;20463;-70
2022/01/30 07:19:50;;;;;;;19.10;16.33;;;3.00;99.90;;;;;;5041538;28;22373;-70
2022/01/30 07:22:17;;;;;;;24.83;17.70;;;3.00;99.90;;;;;;5040787;28;20467;-69
2022/01/30 07:24:44;;;;;;;21.63;16.63;;;2.90;99.90;;;;;;5041249;28;20505;-69
2022/01/30 07:27:12;;;;;;;28.50;16.90;;;2.90;99.90;;;;;;5039647;28;20478;-70
2022/01/30 07:29:40;;;;;;;30.03;17.20;;;3.00;99.90;;;;;;5041575;28;20462;-71
2022/01/30 07:32:08;;;;;;;21.37;16.43;;;3.00;99.90;;;;;;5040646;28;20459;-68
2022/01/30 07:34:51;;;;;;;22.40;16.60;;;3.10;99.90;;;;;;5039892;28;20949;-70
2022/01/30 07:37:19;;;;;;;25.83;16.87;;;3.10;99.90;;;;;;5037850;28;20465;-70
2022/01/30 07:39:46;;;;;;;23.13;16.40;;;3.20;99.90;;;;;;5041403;28;20921;-70
2022/01/30 07:42:13;;;;;;;24.27;16.10;;;3.20;99.90;;;;;;5040266;28;20506;-68
2022/01/30 07:44:41;;;;;;;23.70;16.40;;;3.30;99.90;;;;;;5040928;28;20491;-69
2022/01/30 07:47:08;;;;;;;40.20;17.10;;;3.40;99.90;;;;;;5040333;28;20987;-69
2022/01/30 07:49:35;;;;;;;23.43;15.93;;;3.50;99.90;;;;;;5040206;28;20972;-68
2022/01/30 07:52:02;;;;;;;16.80;15.07;;;3.70;99.90;;;;;;5039750;28;20475;-71
2022/01/30 07:54:32;;;;;;;26.60;16.40;;;3.80;99.90;;;;;;5040342;28;20489;-70
2022/01/30 07:56:58;;;;;;;22.23;15.90;;;3.90;99.90;;;;;;5048385;28;21024;-71
2022/01/30 07:59:25;;;;;;;25.90;15.80;;;4.00;99.90;;;;;;5063255;28;20467;-71
2022/01/30 08:01:55;;;;;;;33.13;16.60;;;4.00;99.90;;;;;;5068338;28;20463;-70
2022/01/30 08:04:22;;;;;;;26.90;15.40;;;4.10;99.90;;;;;;5061059;28;21246;-69
2022/01/30 08:06:48;;;;;;;22.63;15.23;;;4.10;99.90;;;;;;5041947;28;20486;-71
2022/01/30 08:09:15;;;;;;;21.30;15.23;;;4.10;99.90;;;;;;5044019;28;21301;-71
2022/01/30 08:11:42;;;;;;;22.13;17.83;;;4.10;99.90;;;;;;5064406;28;20463;-70
2022/01/30 08:14:09;;;;;;;18.30;15.60;;;4.20;99.90;;;;;;5064221;28;20970;-69
2022/01/30 08:16:36;;;;;;;19.63;15.17;;;4.30;99.90;;;;;;5065438;28;20463;-69
2022/01/30 08:19:05;;;;;;;31.27;16.57;;;4.40;99.90;;;;;;5058856;28;20557;-70
2022/01/30 08:21:32;;;;;;;30.50;16.37;;;4.40;99.90;;;;;;5038259;28;20475;-70
2022/01/30 08:23:59;;;;;;;19.83;15.10;;;4.50;99.90;;;;;;5039616;28;21488;-69
2022/01/30 08:26:26;;;;;;;20.23;14.73;;;4.60;99.90;;;;;;5040124;28;20550;-69
2022/01/30 08:28:53;;;;;;;20.93;15.03;;;4.70;99.90;;;;;;5037619;28;20477;-71
2022/01/30 08:31:20;;;;;;;17.13;15.33;;;4.70;99.90;;;;;;5038686;28;20799;-69
2022/01/30 08:33:46;;;;;;;18.77;15.30;;;4.70;99.90;;;;;;5037233;28;20447;-71
2022/01/30 08:36:15;;;;;;;29.03;15.90;;;4.70;99.90;;;;;;5035834;28;20458;-70
2022/01/30 08:38:42;;;;;;;28.70;16.20;;;4.90;99.90;;;;;;5038100;28;20470;-70
2022/01/30 08:41:08;;;;;;;23.30;15.70;;;5.00;99.90;;;;;;5039646;28;20552;-71
2022/01/30 08:43:36;;;;;;;20.20;15.33;;;5.10;99.90;;;;;;5037270;28;21078;-71
2022/01/30 08:46:04;;;;;;;24.53;15.93;;;5.00;99.90;;;;;;5033773;28;20467;-71
2022/01/30 08:48:32;;;;;;;28.10;16.83;;;5.10;99.90;;;;;;5038378;28;20473;-69
2022/01/30 08:51:00;;;;;;;22.87;16.27;;;5.20;99.90;;;;;;5038955;28;20498;-71
2022/01/30 08:53:28;;;;;;;19.03;15.90;;;5.30;99.90;;;;;;5044600;28;20471;-71
2022/01/30 08:55:54;;;;;;;35.10;16.23;;;5.30;99.90;;;;;;5066557;28;20471;-70
2022/01/30 08:58:21;;;;;;;35.67;16.50;;;5.30;99.90;;;;;;5060029;28;20466;-71
2022/01/30 09:00:48;;;;;;;24.63;14.97;;;5.30;99.90;;;;;;5046963;28;20752;-69
2022/01/30 09:03:15;;;;;;;24.10;16.07;;;5.30;99.90;;;;;;5040356;28;20939;-72
2022/01/30 09:05:41;;;;;;;30.13;15.87;;;5.40;99.90;;;;;;5038702;28;20462;-72
2022/01/30 09:08:09;;;;;;;23.63;16.00;;;5.40;99.90;;;;;;5039485;28;20491;-71
2022/01/30 09:10:41;;;;;;;22.97;17.90;;;5.40;99.90;;;;;;5039321;28;20475;-71
2022/01/30 09:13:08;;;;;;;21.30;15.73;;;5.40;99.90;;;;;;5040830;28;20569;-71
2022/01/30 09:15:39;;;;;;;16.97;15.23;;;5.40;99.90;;;;;;5039706;28;21257;-72
2022/01/30 09:18:08;;;;;;;16.93;13.97;;;5.40;99.90;;;;;;5039216;28;21163;-71
2022/01/30 09:20:35;;;;;;;28.50;15.80;;;5.70;99.90;;;;;;5039640;28;20468;-72
2022/01/30 09:23:02;;;;;;;16.07;14.43;;;5.80;99.90;;;;;;5039933;28;21190;-71
2022/01/30 09:25:29;;;;;;;37.27;17.03;;;5.90;99.90;;;;;;5038811;28;20955;-70
2022/01/30 09:27:57;;;;;;;16.53;14.67;;;6.00;99.90;;;;;;5038876;28;20470;-71
2022/01/30 09:30:24;;;;;;;20.33;14.73;;;6.00;99.90;;;;;;5041452;28;20478;-71
2022/01/30 09:32:51;;;;;;;20.47;15.80;;;5.90;99.90;;;;;;5043678;28;20466;-70
2022/01/30 09:35:17;;;;;;;24.60;15.00;;;6.00;99.90;;;;;;5043058;28;20483;-71
2022/01/30 09:37:44;;;;;;;17.33;15.57;;;6.10;99.90;;;;;;5042126;28;20471;-71
2022/01/30 09:40:13;;;;;;;16.43;14.80;;;6.20;99.90;;;;;;5043304;28;20470;-70
2022/01/30 09:42:43;;;;;;;16.77;15.03;;;6.50;99.90;;;;;;5043154;28;20791;-70
2022/01/30 09:45:12;;;;;;;19.53;14.57;;;6.50;99.90;;;;;;5042306;28;21255;-70
2022/01/30 09:47:39;;;;;;;33.37;16.40;;;6.60;99.90;;;;;;5043026;28;21083;-71
2022/01/30 09:50:09;;;;;;;20.87;15.33;;;6.60;99.90;;;;;;5057508;28;20473;-70
2022/01/30 09:52:37;;;;;;;22.40;14.60;;;6.60;99.90;;;;;;5069329;28;20827;-70
2022/01/30 09:55:05;;;;;;;20.77;14.37;;;6.70;99.90;;;;;;5067224;28;20455;-70
2022/01/30 09:57:33;;;;;;;20.77;14.97;;;6.80;99.90;;;;;;5066109;28;20463;-70
2022/01/30 09:59:59;;;;;;;27.80;16.43;;;6.60;99.90;;;;;;5040529;28;21137;-70
2022/01/30 10:02:28;;;;;;;24.93;14.87;;;6.60;99.90;;;;;;5042708;28;20473;-70
2022/01/30 10:04:55;;;;;;;27.53;15.60;;;6.70;99.90;;;;;;5047844;28;20499;-70
2022/01/30 10:07:26;;;;;;;24.13;14.60;;;6.90;99.90;;;;;;5061514;28;21003;-70
2022/01/30 10:10:08;;;;;;;26.10;14.87;;;6.80;99.90;;;;;;5041535;28;20463;-70
2022/01/30 10:12:35;;;;;;;21.43;14.20;;;7.00;99.90;;;;;;5043572;28;21210;-71
2022/01/30 10:15:03;;;;;;;24.63;14.93;;;7.10;99.90;;;;;;5043512;28;20821;-70
2022/01/30 10:17:36;;;;;;;25.13;14.93;;;7.20;99.90;;;;;;5042878;28;21035;-70
2022/01/30 10:20:07;;;;;;;22.67;14.70;;;7.00;99.90;;;;;;5041432;28;20474;-70
2022/01/30 10:22:36;;;;;;;19.20;15.23;;;6.80;99.90;;;;;;5043308;28;20819;-70
2022/01/30 10:25:04;;;;;;;16.87;14.03;;;6.70;99.90;;;;;;5042823;28;20513;-70
2022/01/30 10:27:33;;;;;;;23.67;15.17;;;7.00;99.90;;;;;;5042726;28;20452;-70
2022/01/30 10:30:02;;;;;;;16.30;14.80;;;7.30;99.90;;;;;;5042644;28;20830;-70
2022/01/30 10:32:30;;;;;;;24.00;15.87;;;7.40;99.90;;;;;;5042574;28;20454;-71
2022/01/30 10:35:01;;;;;;;26.47;15.37;;;7.50;99.90;;;;;;5042556;28;21002;-70
2022/01/30 10:37:28;;;;;;;17.03;15.43;;;7.40;99.90;;;;;;5042589;28;20495;-70
2022/01/30 10:39:57;;;;;;;19.60;15.30;;;7.20;99.90;;;;;;5042262;28;20470;-70
2022/01/30 10:42:41;;;;;;;18.13;15.80;;;7.30;99.90;;;;;;5042560;28;20542;-70
2022/01/30 10:45:10;;;;;;;17.30;15.57;;;7.20;99.90;;;;;;5042615;28;21382;-70
2022/01/30 10:47:38;;;;;;;16.63;13.70;;;7.20;99.90;;;;;;5042715;28;20495;-71
2022/01/30 10:50:18;;;;;;;16.47;14.97;;;7.40;99.90;;;;;;5040203;28;21087;-71
2022/01/30 10:52:53;;;;;;;17.90;15.90;;;7.40;99.90;;;;;;5040338;28;20980;-70
2022/01/30 10:55:33;;;;;;;17.73;14.83;;;7.30;99.90;;;;;;5041353;28;20471;-71
2022/01/30 10:58:01;;;;;;;29.87;15.50;;;7.20;99.90;;;;;;5039065;28;21039;-71
2022/01/30 11:00:41;;;;;;;30.43;17.37;;;7.20;99.90;;;;;;5040644;28;20904;-71
2022/01/30 11:03:10;;;;;;;15.10;13.80;;;7.30;99.90;;;;;;5042114;28;20820;-71
2022/01/30 11:05:59;;;;;;;25.37;16.20;;;7.70;99.90;;;;;;5042070;28;20514;-69
2022/01/30 11:08:26;;;;;;;16.03;14.30;;;8.10;99.90;;;;;;5040962;28;20478;-72
2022/01/30 11:11:09;;;;;;;19.97;15.17;;;8.30;99.90;;;;;;5041271;28;20466;-72
2022/01/30 11:13:48;;;;;;;16.43;15.03;;;8.40;99.90;;;;;;5041474;28;20469;-72
2022/01/30 11:19:01;;;;;;;17.60;14.77;;;8.60;99.90;;;;;;5041109;28;20470;-71
2022/01/30 11:21:30;;;;;;;17.83;14.50;;;8.70;99.90;;;;;;5040413;28;21005;-72
2022/01/30 11:24:01;;;;;;;23.27;15.73;;;8.90;99.90;;;;;;5039361;28;20619;-71
2022/01/30 11:26:29;;;;;;;27.87;18.10;;;8.90;99.90;;;;;;5041194;28;20467;-71
2022/01/30 11:28:57;;;;;;;24.63;16.87;;;8.50;99.90;;;;;;5039774;28;20466;-71
2022/01/30 11:31:25;;;;;;;21.53;17.40;;;8.80;99.90;;;;;;5040392;28;22608;-72
2022/01/30 11:33:54;;;;;;;20.50;15.70;;;8.70;99.90;;;;;;5037314;28;20548;-71
2022/01/30 11:36:22;;;;;;;19.40;14.63;;;9.00;99.90;;;;;;5038207;28;20545;-70
2022/01/30 11:38:51;;;;;;;20.77;15.27;;;9.20;99.90;;;;;;5040767;28;21550;-70
2022/01/30 11:41:20;;;;;;;21.00;15.70;;;9.40;99.90;;;;;;5041147;28;20467;-69
2022/01/30 11:44:26;;;;;;;25.63;17.53;;;9.30;99.90;;;;;;5040539;28;20915;-69
2022/01/30 11:47:21;;;;;;;17.13;14.57;;;8.50;99.90;;;;;;5038139;28;20498;-69
2022/01/30 11:49:55;;;;;;;30.33;16.70;;;8.10;99.90;;;;;;5040520;28;20470;-69
2022/01/30 11:52:52;;;;;;;27.03;15.50;;;7.90;99.90;;;;;;5058699;28;20466;-69
2022/01/30 11:55:59;;;;;;;20.83;15.73;;;7.70;99.90;;;;;;5049317;28;20485;-69
2022/01/30 11:58:58;;;;;;;19.20;15.93;;;7.90;99.90;;;;;;5038853;28;20548;-69
2022/01/30 12:01:40;;;;;;;21.70;15.27;;;8.10;99.90;;;;;;5001093;28;20469;-69
2022/01/30 12:04:11;;;;;;;27.93;15.73;;;8.10;99.90;;;;;;5039527;28;21003;-71
2022/01/30 12:06:39;;;;;;;19.90;16.67;;;7.90;99.90;;;;;;5037498;28;20466;-70
2022/01/30 12:09:26;;;;;;;18.10;16.20;;;7.90;99.90;;;;;;5039526;28;20470;-69
2022/01/30 12:12:03;;;;;;;23.07;17.73;;;7.60;99.90;;;;;;5034675;28;20462;-69
2022/01/30 12:14:59;;;;;;;20.63;16.77;;;7.40;99.90;;;;;;5041608;28;20468;-69
2022/01/30 12:17:59;;;;;;;24.60;15.57;;;7.30;99.90;;;;;;5035783;28;20472;-70
2022/01/30 12:20:28;;;;;;;20.77;16.10;;;7.30;99.90;;;;;;5035439;28;20473;-70
2022/01/30 12:22:56;;;;;;;19.53;17.27;;;7.30;99.90;;;;;;5036077;28;21234;-69
2022/01/30 12:25:29;;;;;;;17.63;15.80;;;7.20;99.90;;;;;;5036222;28;20497;-69
2022/01/30 12:28:02;;;;;;;24.90;16.87;;;7.60;99.90;;;;;;5035938;28;20563;-73
2022/01/30 12:30:49;;;;;;;26.20;16.57;;;8.00;99.90;;;;;;5034619;28;20473;-72
2022/01/30 12:33:43;;;;;;;32.67;16.30;;;8.20;99.90;;;;;;5035863;28;21042;-72
2022/01/30 12:36:16;;;;;;;27.47;15.67;;;8.20;99.90;;;;;;5035546;28;20451;-70
2022/01/30 12:38:43;;;;;;;17.77;15.87;;;8.20;99.90;;;;;;5034485;28;20465;-70
2022/01/30 12:41:18;;;;;;;27.33;17.57;;;8.10;99.90;;;;;;5035902;28;20466;-70
2022/01/30 12:43:45;;;;;;;18.03;15.33;;;7.80;99.90;;;;;;5034236;28;21062;-70
2022/01/30 12:46:15;;;;;;;29.70;17.33;;;7.60;99.90;;;;;;5034798;28;20494;-69
2022/01/30 12:48:42;;;;;;;19.83;16.60;;;7.40;99.90;;;;;;5035192;28;20619;-72
2022/01/30 12:51:14;;;;;;;28.37;16.97;;;7.30;99.90;;;;;;5035484;28;20470;-70
2022/01/30 12:53:42;;;;;;;27.13;17.33;;;7.30;99.90;;;;;;5035422;28;20583;-70
2022/01/30 12:56:10;;;;;;;25.33;16.63;;;7.50;99.90;;;;;;5035845;28;20463;-69
2022/01/30 12:58:43;;;;;;;23.90;17.50;;;7.60;99.90;;;;;;5036097;28;20576;-69
2022/01/30 13:01:14;;;;;;;34.40;17.33;;;8.00;99.90;;;;;;5036152;28;20467;-70
2022/01/30 13:03:41;;;;;;;26.23;16.83;;;8.50;99.90;;;;;;5037308;28;20474;-69
2022/01/30 13:06:08;;;;;;;30.87;15.50;;;8.90;99.90;;;;;;5038390;28;20492;-71
2022/01/30 13:08:49;;;;;;;18.50;16.37;;;9.00;99.90;;;;;;5037556;28;20623;-70
2022/01/30 13:11:21;;;;;;;18.97;17.03;;;9.20;99.90;;;;;;5037173;28;20481;-70
2022/01/30 13:13:55;;;;;;;27.47;17.53;;;9.20;99.90;;;;;;5045204;28;20497;-69
2022/01/30 13:16:24;;;;;;;32.47;16.53;;;9.30;99.90;;;;;;5055314;28;20458;-72
2022/01/30 13:18:51;;;;;;;30.23;16.40;;;9.10;99.90;;;;;;5039562;28;20468;-70
2022/01/30 13:21:31;;;;;;;27.67;17.73;;;9.10;99.90;;;;;;5038873;28;20541;-71
2022/01/30 13:24:00;;;;;;;27.03;16.77;;;9.40;99.90;;;;;;5039101;28;20473;-70
2022/01/30 13:26:38;;;;;;;22.57;17.00;;;9.20;99.90;;;;;;5039649;28;20493;-71
2022/01/30 13:29:08;;;;;;;18.27;16.47;;;9.30;99.90;;;;;;5038916;28;20562;-72